AirNav   Duncan Aviation - Near you to keep you flying
 
 1351 users online  

IA70 Friesenborg & Larson Airport
Buffalo Center, Iowa, USA

GOING TO BUFFALO CENTER?


FAA INFORMATION EFFECTIVE 09 SEPTEMBER 2021

Location

FAA Identifier: IA70
Lat/Long: 43-25-32.8390N 093-50-08.8130W
43-25.547317N 093-50.146883W
43.4257886,-93.8357814
(estimated)
Elevation: 1220 ft. / 372 m (estimated)
Variation: 04E (1985)
From city: 5 miles NE of BUFFALO CENTER, IA
Time zone: UTC -5 (UTC -6 during Standard Time)
Zip code: 50424

Airport Operations

Airport use: Private use. Permission required prior to landing
Activation date: 09/1979
Control tower: no
ARTCC: MINNEAPOLIS CENTER
FSS: FORT DODGE FLIGHT SERVICE STATION
Attendance: UNATNDD
Wind indicator: yes
Segmented circle: no

Airport Communications

WX AWOS-3 at FXY (15 nm SE): 123.925 (641-581-2347)

Nearby radio navigation aids

VOR radial/distance  VOR name  Freq  Var
AELr232/25.4ALBERT LEA VOR/DME109.8001E
MCWr306/29.7MASON CITY VOR/DME114.9006E

 
NDB name  Hdg/Dist  Freq  Var  ID
PUFF083/39.634501EPUF .--. ..- ..-.

Airport Services

Runway Information

Runway 17/35

Dimensions: 2900 x 100 ft. / 884 x 30 m
Surface: turf
RUNWAY 17  RUNWAY 35
Traffic pattern: leftleft
Obstructions: pline, 2500 ft. from runwaypline, 2500 ft. from runway

Airport Ownership and Management from official FAA records

Ownership: Privately-owned
Owner: FRIESENBORG & LARSON, INC.
45884 70TH AVE
BUFFALO CENTER, IA 50424
Phone 515-584-2379
Manager: JOE LARSON
45884 70TH AVE
BUFFALO CENTER, IA 50424
Phone (515) 584-2258

Airport Operational Statistics

Aircraft based on the field: 1
Single engine airplanes: 1
    

Additional Remarks

FOR CD CTC MINNEAPOLIS ARTCC AT 651-463-5588.

Instrument Procedures

There are no published instrument procedures at IA70.

Some nearby airports with instrument procedures:

KFXY - Forest City Municipal Airport (15 nm SE)
KSBU - Blue Earth Municipal Airport (15 nm NW)
KAEL - Albert Lea Municipal Airport (25 nm NE)
KMCW - Mason City Municipal Airport (27 nm SE)
KAXA - Algona Municipal Airport (28 nm SW)
 
Loc | Ops | Rwys | IFR | FBO | Links
Com | Nav | Svcs | Stats | Notes
Area around IA70 (Friesenborg & Larson Airport)
 
Road maps at: MapQuest Bing Google
 
Aerial photo
No photo
 
Sectional chart

 
Airport distance calculator
Flying to Friesenborg & Larson Airport? Find the distance to fly.

From to IA70

Sunrise and sunset
Times for 23-Sep-2021
 Local
(UTC-5)
 Zulu
(UTC)
Morning civil twilight06:3611:36
Sunrise07:0512:05
Sunset19:1100:11
Evening civil twilight19:3900:39

Current date and time
Zulu (UTC)  23-Sep-2021 22:58:50
Local (UTC-5)  23-Sep-2021 17:58:50
 
METAR
KFXY 
15nm SE 
232235Z AUTO 14007KT 10SM CLR 22/02 A2995 RMK AO2
KAEL 
25nm NE 
232255Z AUTO 19003KT 10SM CLR 22/06 A2995 RMK AO2
KMCW 
27nm SE 
232253Z AUTO 18005KT 10SM CLR 21/04 A2997 RMK AO2 SLP144 T02110044
KFRM 
28nm NW 
232156Z AUTO 17012KT 10SM CLR 23/05 A2993 RMK AO2 SLP140 T02330050
KAXA 
29nm SW 
232255Z AUTO 16008KT 10SM CLR 23/05 A2993 RMK A01
TAF
KMCW 
27nm SE 
231735Z 2318/2418 19005KT P6SM SKC FM241400 29007KT P6SM SCT250 FM241600 34010KT P6SM SCT200
NOTAMs
Click for the latest NOTAMs
NOTAMs are issued by the DoD/FAA and will open in a separate window not controlled by AirNav.

 

 
 

Would you like to see your business listed on this page?

 If your business provides an interesting product or service to pilots, flight crews, aircraft, or users of the Friesenborg & Larson Airport, you should consider listing it here.  To start the listing process, click on the button below
 
Add a business
 

Other Pages about Friesenborg & Larson Airport

Update a link
 
Copyright © AirNav, LLC. All rights reserved. Privacy Policy  Contact